Time;durP1;ratioP1;P1;durP2;ratioP2;P2;SDS_P1;SDS_P2;PMS_P1;PMS_P2;Temp;Humidity;BMP_temperature;BMP_pressure;BME280_temperature;BME280_humidity;BME280_pressure;Samples;Min_cycle;Max_cycle;Signal;HPM_P1;HPM_P2
2021/08/13 00:00:47;;;;;;;6.03;5.15;;;;;;;22.28;54.15;100160.34;6039506;23;20102;-81
2021/08/13 00:03:17;;;;;;;7.22;5.57;;;;;;;22.23;53.92;100166.16;6038103;23;20035;-81
2021/08/13 00:05:44;;;;;;;6.43;5.65;;;;;;;22.20;53.65;100169.13;6037921;23;20027;-81
2021/08/13 00:08:15;;;;;;;7.55;5.78;;;;;;;22.15;54.68;100171.44;6038230;23;20062;-81
2021/08/13 00:10:41;;;;;;;6.55;5.47;;;;;;;22.13;53.86;100168.91;6037738;23;20063;-81
2021/08/13 00:13:09;;;;;;;10.18;6.65;;;;;;;22.10;53.73;100179.94;6038126;23;20102;-81
2021/08/13 00:15:36;;;;;;;8.68;6.00;;;;;;;22.08;53.94;100178.41;6037781;23;20107;-81
2021/08/13 00:18:03;;;;;;;8.35;5.60;;;;;;;22.06;53.86;100175.91;6037990;23;20079;-81
2021/08/13 00:20:32;;;;;;;7.90;5.53;;;;;;;22.06;53.83;100175.03;6037877;23;20067;-81
2021/08/13 00:22:58;;;;;;;6.13;5.40;;;;;;;22.05;53.96;100179.53;6039647;23;20019;-80
2021/08/13 00:25:25;;;;;;;6.55;5.55;;;;;;;22.05;54.24;100171.50;6042851;23;20074;-81
2021/08/13 00:27:54;;;;;;;8.13;5.97;;;;;;;22.04;54.66;100177.88;6042890;23;20066;-81
2021/08/13 00:30:21;;;;;;;9.10;6.20;;;;;;;22.05;54.29;100176.03;6042679;23;20057;-82
2021/08/13 00:32:49;;;;;;;8.15;5.70;;;;;;;22.05;54.38;100181.41;6042976;23;20401;-82
2021/08/13 00:35:16;;;;;;;8.65;6.38;;;;;;;22.04;54.32;100174.34;6042787;23;20023;-82
2021/08/13 00:37:43;;;;;;;6.03;5.05;;;;;;;22.04;54.25;100182.38;6042435;23;20114;-82
2021/08/13 00:40:10;;;;;;;7.53;6.03;;;;;;;22.02;54.36;100179.88;6043052;23;20058;-84
2021/08/13 00:42:49;;;;;;;6.45;5.75;;;;;;;21.97;55.22;100180.31;6043850;23;20424;-85
2021/08/13 00:45:16;;;;;;;8.80;6.43;;;;;;;22.00;54.51;100173.81;6044832;23;20458;-84
2021/08/13 00:47:56;;;;;;;6.32;5.45;;;;;;;21.94;55.05;100183.28;6044237;23;20097;-85
2021/08/13 00:50:23;;;;;;;11.88;6.25;;;;;;;21.97;54.23;100176.78;6044636;23;20470;-85
2021/08/13 00:53:09;;;;;;;6.53;5.82;;;;;;;21.90;55.13;100171.19;6069530;23;20027;-85
2021/08/13 00:55:36;;;;;;;10.13;5.65;;;;;;;21.94;54.67;100172.56;6069705;23;20320;-85
2021/08/13 00:58:06;;;;;;;7.35;6.07;;;;;;;21.92;55.02;100184.44;6069422;23;20062;-85
2021/08/13 01:00:34;;;;;;;5.45;4.95;;;;;;;21.89;54.64;100177.56;6044668;23;20396;-85
2021/08/13 01:03:18;;;;;;;6.25;5.20;;;;;;;21.82;55.12;100182.66;6044699;23;20031;-85
2021/08/13 01:05:46;;;;;;;9.25;6.18;;;;;;;21.85;54.63;100185.06;6044373;23;20519;-85
2021/08/13 01:08:17;;;;;;;8.45;6.78;;;;;;;21.81;54.78;100182.81;6044387;23;20097;-84
2021/08/13 01:11:04;;;;;;;7.13;5.88;;;;;;;21.77;54.94;100187.66;6044144;23;20054;-85
2021/08/13 01:13:44;;;;;;;6.95;5.95;;;;;;;21.80;55.11;100198.06;6044578;23;20061;-85
2021/08/13 01:16:13;;;;;;;8.48;5.93;;;;;;;21.82;54.77;100188.03;6044524;23;20466;-85
2021/08/13 01:18:49;;;;;;;6.68;5.65;;;;;;;21.82;55.46;100187.19;6044533;23;20226;-85
2021/08/13 01:21:44;;;;;;;6.65;5.60;;;;;;;21.82;55.22;100193.41;6044325;23;20102;-84
2021/08/13 01:24:35;;;;;;;6.68;5.30;;;;;;;21.83;55.30;100180.84;6038966;23;20137;-85
2021/08/13 01:27:10;;;;;;;8.07;6.07;;;;;;;21.86;55.04;100186.75;6039102;23;20063;-85
2021/08/13 01:30:08;;;;;;;7.20;5.57;;;;;;;21.82;55.39;100193.41;6039042;23;20019;-85
2021/08/13 01:32:53;;;;;;;9.52;5.93;;;;;;;21.83;54.77;100199.59;6039042;23;20452;-84
2021/08/13 01:35:36;;;;;;;7.05;5.72;;;;;;;21.82;54.75;100196.06;6039044;23;20038;-85
2021/08/13 01:38:18;;;;;;;10.32;7.13;;;;;;;21.83;54.71;100196.94;6039443;23;20429;-85
2021/08/13 01:40:47;;;;;;;7.93;6.30;;;;;;;21.85;54.40;100197.59;6039559;23;20058;-85
2021/08/13 01:43:22;;;;;;;11.02;6.85;;;;;;;21.81;54.60;100193.53;6039341;23;20098;-85
2021/08/13 01:45:50;;;;;;;9.55;6.82;;;;;;;21.85;54.75;100200.28;6038775;23;20027;-85
2021/08/13 01:48:19;;;;;;;8.77;6.90;;;;;;;21.84;54.47;100199.47;6039236;23;20031;-85
2021/08/13 01:50:46;;;;;;;8.10;7.05;;;;;;;21.84;54.29;100190.56;6038856;23;20094;-85
2021/08/13 01:53:15;;;;;;;11.93;7.85;;;;;;;21.82;54.75;100184.50;6039012;23;20429;-85
2021/08/13 01:55:44;;;;;;;7.03;5.80;;;;;;;21.82;54.60;100190.72;6038652;23;20058;-85
2021/08/13 01:58:11;;;;;;;9.77;7.60;;;;;;;21.81;54.52;100183.69;6038823;23;20102;-85
2021/08/13 02:00:38;;;;;;;9.65;7.72;;;;;;;21.81;54.36;100194.41;6039472;23;20062;-82
2021/08/13 02:03:08;;;;;;;13.02;8.65;;;;;;;21.79;54.61;100201.72;6039033;23;20053;-81
2021/08/13 02:05:38;;;;;;;9.98;8.00;;;;;;;21.79;54.45;100195.53;6038864;23;20023;-82
2021/08/13 02:08:07;;;;;;;12.75;8.50;;;;;;;21.77;54.62;100197.50;6039243;23;20474;-81
2021/08/13 02:10:36;;;;;;;14.43;9.35;;;;;;;21.76;54.39;100201.19;6039109;23;20468;-82
2021/08/13 02:13:04;;;;;;;12.98;9.70;;;;;;;21.74;54.48;100204.00;6038838;23;20059;-81
2021/08/13 02:15:33;;;;;;;13.48;9.82;;;;;;;21.73;54.40;100197.84;6039063;23;20507;-81
2021/08/13 02:18:10;;;;;;;14.52;9.48;;;;;;;21.70;54.79;100192.72;6039160;23;20126;-81
2021/08/13 02:20:41;;;;;;;15.70;10.77;;;;;;;21.70;54.58;100192.72;6039514;23;20114;-81
2021/08/13 02:23:10;;;;;;;12.27;9.73;;;;;;;21.70;54.54;100205.28;6042506;23;20050;-80
2021/08/13 02:25:37;;;;;;;17.25;11.02;;;;;;;21.69;54.42;100204.44;6043674;23;20058;-81
2021/08/13 02:28:04;;;;;;;18.42;11.07;;;;;;;21.68;54.39;100208.09;6043682;23;20058;-82
2021/08/13 02:30:31;;;;;;;16.17;12.02;;;;;;;21.68;54.39;100207.28;6043617;23;20131;-82
2021/08/13 02:32:57;;;;;;;15.57;12.23;;;;;;;21.67;54.41;100206.41;6043656;23;20073;-82
2021/08/13 02:35:48;;;;;;;18.77;14.02;;;;;;;21.61;54.58;100199.00;6043269;23;20062;-85
2021/08/13 02:38:59;;;;;;;17.33;12.98;;;;;;;21.58;54.66;100205.50;6043805;23;20495;-85
2021/08/13 02:41:44;;;;;;;20.15;13.15;;;;;;;21.59;54.57;100206.31;6043425;23;20046;-85
2021/08/13 02:44:12;;;;;;;23.33;13.75;;;;;;;21.61;54.59;100193.63;6043255;23;20106;-85
2021/08/13 02:47:01;;;;;;;20.65;14.70;;;;;;;21.54;54.76;100193.38;6043429;23;20062;-85
2021/08/13 02:49:28;;;;;;;21.02;15.23;;;;;;;21.57;54.50;100198.44;6068382;23;20065;-85
2021/08/13 02:52:09;;;;;;;22.55;14.60;;;;;;;21.52;54.88;100202.56;6043686;23;20406;-85
2021/08/13 02:54:38;;;;;;;17.50;14.98;;;;;;;21.55;54.65;100204.94;6043070;23;20103;-85
2021/08/13 02:57:12;;;;;;;23.85;15.55;;;;;;;21.50;55.09;100194.69;6019521;23;20094;-85
2021/08/13 02:59:41;;;;;;;18.20;14.05;;;;;;;21.53;54.76;100196.22;6042342;23;20058;-85
2021/08/13 03:02:12;;;;;;;19.80;14.55;;;;;;;21.53;54.91;100191.69;6069131;23;20027;-85
2021/08/13 03:04:40;;;;;;;20.52;14.85;;;;;;;21.53;54.90;100189.00;6042763;23;20034;-85
2021/08/13 03:07:27;;;;;;;21.65;15.52;;;;;;;21.51;55.17;100195.50;6043289;23;20072;-85
2021/08/13 03:09:55;;;;;;;19.85;15.70;;;;;;;21.55;54.70;100192.38;6043454;23;20106;-85
2021/08/13 03:12:33;;;;;;;18.70;14.27;;;;;;;21.53;54.82;100194.34;6043855;23;20864;-85
2021/08/13 03:15:01;;;;;;;18.58;15.25;;;;;;;21.56;54.64;100191.38;6042655;23;20046;-85
2021/08/13 03:17:29;;;;;;;22.33;14.45;;;;;;;21.57;54.55;100189.56;6043944;23;20035;-85
2021/08/13 03:19:56;;;;;;;18.67;15.15;;;;;;;21.57;54.50;100194.94;6043441;23;20046;-84
2021/08/13 03:22:24;;;;;;;22.10;15.25;;;;;;;21.54;54.42;100188.03;6068475;23;20102;-84
2021/08/13 03:24:51;;;;;;;20.00;15.50;;;;;;;21.55;54.52;100186.19;6067956;23;20114;-85
2021/08/13 03:27:20;;;;;;;20.00;14.25;;;;;;;21.53;54.56;100182.81;6043418;23;20413;-85
2021/08/13 03:29:47;;;;;;;23.80;14.18;;;;;;;21.51;54.44;100177.59;6042768;23;20106;-85
2021/08/13 03:32:18;;;;;;;18.30;13.55;;;;;;;21.48;54.46;100178.75;6042949;23;20054;-85
2021/08/13 03:34:45;;;;;;;17.88;13.73;;;;;;;21.48;54.19;100181.44;6042605;23;20037;-85
2021/08/13 03:37:14;;;;;;;18.35;14.68;;;;;;;21.46;54.23;100177.22;6043231;23;20458;-85
2021/08/13 03:39:41;;;;;;;20.35;14.30;;;;;;;21.45;54.18;100179.03;6068293;23;20098;-85
2021/08/13 03:42:08;;;;;;;18.85;14.80;;;;;;;21.43;54.06;100183.72;6043195;23;20102;-85
2021/08/13 03:44:35;;;;;;;16.23;12.77;;;;;;;21.41;54.56;100174.97;6042542;23;20058;-85
2021/08/13 03:47:03;;;;;;;18.15;14.55;;;;;;;21.40;54.39;100181.31;6043346;23;20514;-85
2021/08/13 03:49:30;;;;;;;19.08;14.60;;;;;;;21.39;54.75;100178.78;6042750;23;20027;-85
2021/08/13 03:51:57;;;;;;;17.42;14.15;;;;;;;21.38;54.55;100183.28;6043052;23;20489;-85
2021/08/13 03:54:25;;;;;;;15.75;12.32;;;;;;;21.35;54.56;100180.94;6042935;23;20031;-84
2021/08/13 03:56:52;;;;;;;16.77;13.52;;;;;;;21.33;54.70;100175.72;6042572;23;20062;-85
2021/08/13 03:59:18;;;;;;;18.85;14.23;;;;;;;21.33;54.69;100172.19;6042692;23;20022;-85
2021/08/13 04:01:45;;;;;;;18.67;14.02;;;;;;;21.30;54.36;100169.81;6042479;23;20025;-85
2021/08/13 04:04:13;;;;;;;19.10;13.60;;;;;;;21.28;54.32;100177.16;6068188;23;20022;-81
2021/08/13 04:06:40;;;;;;;18.13;13.23;;;;;;;21.26;53.88;100168.44;6043167;23;20407;-81
2021/08/13 04:09:08;;;;;;;21.70;14.77;;;;;;;21.23;53.92;100169.53;6043097;23;20154;-81
2021/08/13 04:11:34;;;;;;;24.52;15.25;;;;;;;21.22;53.67;100162.50;6068141;23;20462;-81
2021/08/13 04:14:04;;;;;;;21.17;14.57;;;;;;;21.19;53.52;100171.69;6043103;23;20086;-81
2021/08/13 04:16:31;;;;;;;23.63;15.02;;;;;;;21.19;53.46;100158.28;6068064;23;20379;-82
2021/08/13 04:19:00;;;;;;;23.77;15.75;;;;;;;21.20;53.01;100159.16;6042931;23;20027;-82
2021/08/13 04:21:26;;;;;;;20.52;15.38;;;;;;;21.21;53.17;100152.81;6043580;23;20093;-82
2021/08/13 04:23:54;;;;;;;18.90;14.77;;;;;;;21.22;53.18;100141.09;6041096;23;20094;-82
2021/08/13 04:26:21;;;;;;;18.20;13.82;;;;;;;21.25;53.14;100147.97;6038271;23;20094;-81
2021/08/13 04:28:51;;;;;;;17.35;13.27;;;;;;;21.26;52.94;100147.84;6037795;23;20102;-80
2021/08/13 04:31:17;;;;;;;16.98;13.50;;;;;;;21.29;52.97;100149.38;6038136;23;20471;-81
2021/08/13 04:33:57;;;;;;;19.65;14.48;;;;;;;21.27;53.00;100156.72;6039615;23;20151;-81
2021/08/13 04:36:24;;;;;;;17.08;13.48;;;;;;;21.33;52.60;100156.13;6039325;23;20115;-81
2021/08/13 04:38:56;;;;;;;25.10;14.07;;;;;;;21.31;52.71;100152.75;6038350;23;20094;-81
2021/08/13 04:41:22;;;;;;;18.10;14.35;;;;;;;21.34;52.85;100153.31;6038057;23;20459;-81
2021/08/13 04:43:49;;;;;;;15.98;13.32;;;;;;;21.36;52.82;100158.50;6037846;23;20097;-81
2021/08/13 04:46:16;;;;;;;21.95;14.20;;;;;;;21.36;52.36;100158.50;6038404;23;20132;-81
2021/08/13 04:48:47;;;;;;;18.63;14.30;;;;;;;21.36;52.60;100166.53;6038396;23;20388;-81
2021/08/13 04:51:14;;;;;;;19.13;14.27;;;;;;;21.38;52.40;100158.38;6039430;23;20463;-81
2021/08/13 04:53:40;;;;;;;25.45;14.18;;;;;;;21.38;52.43;100161.88;6037545;23;20095;-81
2021/08/13 04:56:07;;;;;;;21.48;13.85;;;;;;;21.39;52.40;100163.56;6038060;23;20470;-81
2021/08/13 04:58:34;;;;;;;19.10;13.75;;;;;;;21.39;52.56;100160.91;6037938;23;20078;-81
2021/08/13 05:01:01;;;;;;;18.10;14.23;;;;;;;21.41;52.41;100164.25;6037548;23;20095;-81
2021/08/13 05:03:36;;;;;;;19.40;14.18;;;;;;;21.39;52.31;100166.25;6039194;23;20110;-80
2021/08/13 05:06:02;;;;;;;24.00;14.63;;;;;;;21.45;52.33;100173.69;6038039;23;20531;-81
2021/08/13 05:08:38;;;;;;;18.65;13.05;;;;;;;21.45;52.31;100175.50;6039384;23;20073;-81
2021/08/13 05:11:05;;;;;;;21.77;14.43;;;;;;;21.51;52.17;100171.41;6037810;23;20098;-80
2021/08/13 05:13:31;;;;;;;15.73;12.05;;;;;;;21.52;52.20;100165.91;6037807;23;20098;-81
2021/08/13 05:15:58;;;;;;;16.75;13.00;;;;;;;21.55;52.07;100172.78;6038870;23;20073;-81
2021/08/13 05:18:25;;;;;;;17.77;13.68;;;;;;;21.58;52.17;100168.00;6038416;23;20086;-81
2021/08/13 05:20:52;;;;;;;15.70;12.80;;;;;;;21.61;51.99;100164.16;6037718;23;20059;-81
2021/08/13 05:23:18;;;;;;;15.45;12.07;;;;;;;21.64;52.01;100163.84;6037807;23;20063;-80
2021/08/13 05:25:47;;;;;;;15.70;11.82;;;;;;;21.65;52.19;100149.47;6058658;23;20037;-81
2021/08/13 05:28:14;;;;;;;14.70;11.95;;;;;;;21.67;52.09;100150.16;6043139;23;20097;-81
2021/08/13 05:30:42;;;;;;;14.35;12.00;;;;;;;21.69;51.82;100150.88;6069403;23;20466;-81
2021/08/13 05:33:09;;;;;;;16.20;11.98;;;;;;;21.71;51.82;100151.53;6044714;23;20131;-81
2021/08/13 05:35:37;;;;;;;14.93;11.82;;;;;;;21.73;52.02;100163.00;6044457;23;20113;-81
2021/08/13 05:38:04;;;;;;;14.93;12.35;;;;;;;21.75;51.81;100173.53;6044109;23;20105;-81
2021/08/13 05:40:32;;;;;;;19.67;12.75;;;;;;;21.77;51.70;100173.41;6044292;23;20105;-81
2021/08/13 05:42:59;;;;;;;15.95;11.90;;;;;;;21.80;51.77;100179.31;6044407;23;20027;-81
2021/08/13 05:45:27;;;;;;;19.33;13.38;;;;;;;21.82;51.96;100180.00;6044189;23;20073;-81
2021/08/13 05:47:54;;;;;;;16.30;13.18;;;;;;;21.86;52.10;100177.84;6044453;23;20464;-81
2021/08/13 05:50:22;;;;;;;18.77;14.25;;;;;;;21.89;52.18;100179.38;6044379;23;20394;-81
2021/08/13 05:52:49;;;;;;;20.02;13.05;;;;;;;21.93;52.23;100188.81;6044643;23;20371;-81
2021/08/13 05:55:17;;;;;;;15.80;12.85;;;;;;;21.96;52.49;100200.09;6044069;23;20057;-82
2021/08/13 05:57:44;;;;;;;16.05;12.68;;;;;;;22.01;52.26;100196.94;6044179;23;20058;-82
2021/08/13 06:00:12;;;;;;;17.35;12.30;;;;;;;22.06;52.32;100196.50;6044039;23;20031;-82
2021/08/13 06:02:52;;;;;;;18.13;12.68;;;;;;;22.10;52.09;100185.28;6044055;23;20102;-83
2021/08/13 06:05:19;;;;;;;15.60;12.32;;;;;;;22.23;52.14;100184.94;6044072;23;20082;-83
2021/08/13 06:07:46;;;;;;;17.52;11.60;;;;;;;22.32;51.94;100185.81;6044193;23;20073;-83
2021/08/13 06:10:15;;;;;;;16.73;12.43;;;;;;;22.41;51.83;100194.81;6044141;23;20473;-83
2021/08/13 06:12:42;;;;;;;15.93;11.93;;;;;;;22.53;51.73;100190.03;6043912;23;20026;-83
2021/08/13 06:15:10;;;;;;;14.95;10.70;;;;;;;22.61;51.58;100186.63;6043217;23;20097;-83
2021/08/13 06:17:39;;;;;;;14.43;10.55;;;;;;;22.69;50.59;100181.28;6043807;23;20031;-83
2021/08/13 06:20:21;;;;;;;14.10;10.48;;;;;;;22.72;50.23;100191.72;6043704;23;20101;-83
2021/08/13 06:22:49;;;;;;;18.58;10.77;;;;;;;22.83;50.49;100184.44;6043817;23;20097;-83
2021/08/13 06:25:18;;;;;;;15.95;10.95;;;;;;;22.89;50.32;100183.78;6038306;23;20034;-83
2021/08/13 06:27:50;;;;;;;15.13;11.77;;;;;;;22.93;50.25;100182.47;6038828;23;20486;-83
2021/08/13 06:30:19;;;;;;;15.55;10.55;;;;;;;23.01;50.30;100182.53;6039052;23;20034;-84
2021/08/13 06:33:11;;;;;;;14.50;12.15;;;;;;;23.07;50.47;100189.09;6015097;23;20062;-84
2021/08/13 06:35:37;;;;;;;16.05;10.88;;;;;;;23.20;50.25;100194.03;6038214;23;20106;-84
2021/08/13 06:38:04;;;;;;;12.65;9.75;;;;;;;23.26;50.50;100189.88;6039039;23;20463;-84
2021/08/13 06:40:34;;;;;;;14.65;10.75;;;;;;;23.32;50.38;100191.91;6038363;23;20403;-84
2021/08/13 06:43:01;;;;;;;12.93;9.30;;;;;;;23.41;50.65;100196.31;6038539;23;20070;-84
2021/08/13 06:45:30;;;;;;;12.30;9.35;;;;;;;23.49;50.78;100200.91;6038563;23;20077;-84
2021/08/13 06:47:57;;;;;;;14.00;10.05;;;;;;;23.60;50.54;100185.50;6039062;23;20034;-84
2021/08/13 06:50:24;;;;;;;17.33;11.82;;;;;;;23.68;50.29;100189.06;6038457;23;20050;-84
2021/08/13 06:52:51;;;;;;;16.10;11.65;;;;;;;23.77;50.35;100189.09;6038521;23;20050;-84
2021/08/13 06:55:26;;;;;;;15.95;10.55;;;;;;;23.81;49.72;100185.06;6038653;23;20351;-84
2021/08/13 06:57:53;;;;;;;15.57;11.13;;;;;;;23.91;49.58;100184.91;6040160;23;20475;-84
2021/08/13 07:00:23;;;;;;;15.15;10.63;;;;;;;23.95;49.71;100175.50;6038257;23;20066;-83
2021/08/13 07:02:50;;;;;;;15.65;11.30;;;;;;;24.03;49.85;100188.97;6038677;23;20483;-84
2021/08/13 07:05:21;;;;;;;14.25;10.52;;;;;;;24.07;50.29;100189.50;6038479;23;20324;-84
2021/08/13 07:07:48;;;;;;;15.68;10.88;;;;;;;24.14;50.40;100195.09;6038374;23;20027;-84
2021/08/13 07:10:15;;;;;;;12.98;10.50;;;;;;;24.18;50.45;100185.69;6038599;23;20050;-84
2021/08/13 07:12:42;;;;;;;15.32;12.02;;;;;;;24.23;49.89;100191.38;6038507;23;20023;-84
2021/08/13 07:15:20;;;;;;;15.65;10.82;;;;;;;24.24;49.69;100176.94;6038281;23;20051;-84
2021/08/13 07:17:47;;;;;;;17.48;11.85;;;;;;;24.32;49.79;100176.94;6038076;23;20102;-84
2021/08/13 07:20:14;;;;;;;14.73;10.95;;;;;;;24.37;50.15;100176.41;6038245;23;20111;-84
2021/08/13 07:22:41;;;;;;;16.25;12.20;;;;;;;24.44;50.18;100179.25;6038162;23;20099;-84
2021/08/13 07:25:19;;;;;;;12.90;9.93;;;;;;;24.46;50.04;100183.50;6041076;23;20061;-84
2021/08/13 07:27:46;;;;;;;14.05;10.90;;;;;;;24.57;50.39;100181.47;6037934;23;20055;-84
2021/08/13 07:30:15;;;;;;;15.32;9.38;;;;;;;24.65;50.23;100191.38;6038006;23;20038;-84
2021/08/13 07:32:44;;;;;;;13.95;8.68;;;;;;;24.74;50.35;100190.34;6037939;23;20102;-84
2021/08/13 07:35:12;;;;;;;11.50;9.23;;;;;;;24.85;50.59;100189.19;6038261;23;20094;-84
2021/08/13 07:37:39;;;;;;;13.45;9.23;;;;;;;24.96;50.75;100188.00;6038319;23;20093;-82
2021/08/13 07:40:07;;;;;;;11.50;8.55;;;;;;;25.05;50.03;100189.69;6038436;23;20411;-82
2021/08/13 07:42:40;;;;;;;14.35;9.68;;;;;;;25.15;49.31;100196.72;6038177;23;20111;-82
2021/08/13 07:45:08;;;;;;;12.05;8.23;;;;;;;25.26;49.52;100198.19;6038019;23;20396;-82
2021/08/13 07:47:37;;;;;;;11.18;9.00;;;;;;;25.33;49.08;100199.16;6038206;23;20081;-82
2021/08/13 07:50:04;;;;;;;15.40;9.77;;;;;;;25.41;49.22;100201.84;6038099;23;20102;-82
2021/08/13 07:52:31;;;;;;;13.45;10.15;;;;;;;25.49;49.11;100204.50;6037740;23;20059;-82
2021/08/13 07:54:58;;;;;;;15.15;10.18;;;;;;;25.57;48.12;100200.13;6038066;23;20462;-83
2021/08/13 07:57:26;;;;;;;12.27;8.75;;;;;;;25.61;48.24;100204.97;6038519;23;20081;-84
2021/08/13 08:00:15;;;;;;;13.90;10.57;;;;;;;25.62;47.93;100201.28;6038438;23;20087;-85
2021/08/13 08:06:24;;;;;;;11.63;9.02;;;;;;;25.83;48.20;100209.78;6040144;23;20026;-86
2021/08/13 08:13:07;;;;;;;11.63;8.95;;;;;;;25.89;48.58;100215.28;6039931;23;20104;-86
2021/08/13 08:15:34;;;;;;;13.70;9.10;;;;;;;26.00;49.04;100224.00;6038425;23;20070;-85
2021/08/13 08:18:01;;;;;;;10.02;8.98;;;;;;;26.03;48.33;100223.63;6038809;23;20396;-86
2021/08/13 08:24:19;;;;;;;12.80;8.20;;;;;;;26.19;48.26;100225.38;6039977;23;20018;-86
2021/08/13 08:26:49;;;;;;;9.07;7.40;;;;;;;26.24;47.93;100235.66;6037897;23;20363;-86
2021/08/13 08:29:16;;;;;;;11.57;8.10;;;;;;;26.30;47.89;100232.25;6038080;23;20058;-88
2021/08/13 08:31:44;;;;;;;10.02;8.00;;;;;;;26.34;47.92;100238.13;6037702;23;20069;-88
2021/08/13 08:34:11;;;;;;;10.57;8.10;;;;;;;26.39;48.20;100241.16;6037587;23;20106;-81
2021/08/13 08:36:37;;;;;;;11.13;8.25;;;;;;;26.44;47.77;100243.28;6037537;23;20065;-81
2021/08/13 08:39:04;;;;;;;11.02;8.70;;;;;;;26.46;47.49;100234.00;6038041;23;20037;-81
2021/08/13 08:41:32;;;;;;;9.18;7.95;;;;;;;26.50;47.53;100232.59;6038057;23;20098;-81
2021/08/13 08:43:58;;;;;;;9.75;8.02;;;;;;;26.53;48.02;100232.25;6037291;23;20030;-82
2021/08/13 08:46:26;;;;;;;12.75;7.55;;;;;;;26.57;48.43;100242.69;6037622;23;20070;-82
2021/08/13 08:48:54;;;;;;;13.35;9.35;;;;;;;26.60;47.90;100245.88;6037984;23;20107;-81
2021/08/13 08:51:22;;;;;;;11.50;8.80;;;;;;;26.64;47.90;100244.47;6037503;23;20027;-81
2021/08/13 08:53:52;;;;;;;11.13;8.20;;;;;;;26.69;47.67;100237.69;6037212;23;20107;-81
2021/08/13 08:56:26;;;;;;;17.38;8.52;;;;;;;26.72;47.93;100240.03;6037907;23;20023;-81
2021/08/13 08:58:54;;;;;;;12.40;8.68;;;;;;;26.78;48.09;100252.81;6037755;23;20069;-81
2021/08/13 09:01:27;;;;;;;11.20;8.15;;;;;;;26.81;47.93;100255.16;6038026;23;20400;-81
2021/08/13 09:03:54;;;;;;;12.55;9.18;;;;;;;26.87;47.89;100249.00;6038371;23;20031;-81
2021/08/13 09:06:24;;;;;;;11.80;9.52;;;;;;;26.90;47.69;100254.03;6039404;23;20063;-81
2021/08/13 09:08:51;;;;;;;12.38;8.77;;;;;;;26.95;48.44;100256.25;6039709;23;20121;-81
2021/08/13 09:11:19;;;;;;;14.02;9.88;;;;;;;27.01;47.79;100260.03;6039279;23;20058;-81
2021/08/13 09:14:00;;;;;;;11.57;9.13;;;;;;;27.01;48.14;100268.16;6038948;23;20027;-82
2021/08/13 09:16:31;;;;;;;14.02;9.98;;;;;;;27.05;47.52;100266.75;6039782;23;20051;-82
2021/08/13 09:19:04;;;;;;;16.83;10.02;;;;;;;27.03;47.58;100275.03;6039309;23;20030;-81
2021/08/13 09:21:33;;;;;;;13.10;9.80;;;;;;;27.02;47.42;100283.34;6039701;23;20474;-81
2021/08/13 09:24:12;;;;;;;11.73;9.23;;;;;;;26.95;47.51;100279.69;6039018;23;20023;-81
2021/08/13 09:26:41;;;;;;;12.02;9.70;;;;;;;26.91;47.34;100277.31;6039366;23;20082;-81
2021/08/13 09:29:17;;;;;;;11.85;9.25;;;;;;;26.83;47.76;100280.09;6039187;23;20061;-81
2021/08/13 09:31:53;;;;;;;12.23;9.70;;;;;;;26.73;47.71;100282.22;6039442;23;20045;-81
2021/08/13 09:34:27;;;;;;;13.55;10.43;;;;;;;26.69;48.34;100284.44;6038734;23;20102;-81
2021/08/13 09:36:55;;;;;;;12.75;9.20;;;;;;;26.70;48.68;100282.56;6037718;23;20098;-81
2021/08/13 09:39:32;;;;;;;11.30;9.77;;;;;;;26.69;49.44;100270.09;6039922;23;20059;-82
2021/08/13 09:42:06;;;;;;;13.35;9.93;;;;;;;26.77;49.34;100275.44;6039868;23;20026;-81
2021/08/13 09:44:37;;;;;;;13.40;11.20;;;;;;;26.85;49.14;100288.00;6039351;23;20420;-84
2021/08/13 09:47:12;;;;;;;13.07;10.80;;;;;;;26.95;49.38;100290.50;6039821;23;20075;-83
2021/08/13 09:49:41;;;;;;;14.38;10.15;;;;;;;27.10;49.33;100285.13;6040278;23;20094;-83
2021/08/13 09:52:12;;;;;;;12.38;9.68;;;;;;;27.22;48.46;100282.81;6039688;23;20023;-83
2021/08/13 09:54:39;;;;;;;13.70;9.93;;;;;;;27.32;48.37;100283.38;6039560;23;20098;-83
2021/08/13 09:57:17;;;;;;;12.55;9.45;;;;;;;27.37;48.38;100269.31;6039975;23;20351;-81
2021/08/13 10:00:01;;;;;;;11.98;9.68;;;;;;;27.43;48.06;100261.28;6039523;23;20074;-81
2021/08/13 10:02:32;;;;;;;13.43;9.68;;;;;;;27.52;47.64;100269.31;6039754;23;20062;-81
2021/08/13 10:05:00;;;;;;;25.40;10.00;;;;;;;27.60;47.97;100274.63;6039573;23;20027;-82
2021/08/13 10:08:09;;;;;;;12.27;9.77;;;;;;;27.62;47.92;100277.19;6040039;23;20028;-81
2021/08/13 10:10:41;;;;;;;10.57;8.90;;;;;;;27.72;47.43;100271.50;6037207;23;20359;-82
2021/08/13 10:13:09;;;;;;;11.15;8.85;;;;;;;27.76;47.03;100272.75;6039403;23;20094;-82
2021/08/13 10:15:45;;;;;;;10.65;9.05;;;;;;;27.78;47.41;100274.28;6039844;23;20494;-82
2021/08/13 10:18:14;;;;;;;15.57;9.88;;;;;;;27.84;48.21;100269.94;6040042;23;20046;-82
2021/08/13 10:20:44;;;;;;;10.77;9.68;;;;;;;27.90;47.37;100266.50;6039909;23;20027;-82
2021/08/13 10:23:12;;;;;;;13.82;10.60;;;;;;;27.97;47.57;100262.00;6039450;23;20099;-87
2021/08/13 10:25:39;;;;;;;12.55;10.85;;;;;;;28.04;47.56;100264.81;6042255;23;20098;-87
2021/08/13 10:28:06;;;;;;;13.02;8.98;;;;;;;28.12;47.26;100262.97;6044409;23;20054;-87
2021/08/13 10:30:34;;;;;;;11.60;9.65;;;;;;;28.19;47.69;100256.59;6044678;23;20122;-87
2021/08/13 10:33:03;;;;;;;14.63;10.75;;;;;;;28.28;46.96;100257.38;6044682;23;20027;-87
2021/08/13 10:35:48;;;;;;;13.13;10.38;;;;;;;28.35;48.00;100255.56;6044277;23;20442;-87
2021/08/13 10:38:18;;;;;;;10.70;9.45;;;;;;;28.53;47.64;100261.56;6044389;23;20105;-87
2021/08/13 10:40:46;;;;;;;13.63;9.77;;;;;;;28.66;47.81;100256.25;6044132;23;20102;-87
2021/08/13 10:43:14;;;;;;;12.35;10.57;;;;;;;28.82;47.26;100257.03;6044564;23;20487;-86
2021/08/13 10:45:46;;;;;;;14.23;12.02;;;;;;;28.93;46.49;100253.78;6043897;23;20073;-87
2021/08/13 10:48:20;;;;;;;17.10;12.40;;;;;;;29.07;46.66;100253.88;6069370;23;20027;-87
2021/08/13 10:50:51;;;;;;;14.18;11.52;;;;;;;29.16;46.29;100265.41;6039117;23;20094;-82
2021/08/13 10:53:33;;;;;;;16.08;11.98;;;;;;;29.14;45.59;100254.78;6069047;23;20094;-82
2021/08/13 10:56:03;;;;;;;14.90;11.10;;;;;;;29.23;46.30;100260.88;6043934;23;20023;-81
2021/08/13 10:58:37;;;;;;;14.27;11.80;;;;;;;29.28;46.01;100258.41;6044102;23;20026;-82
2021/08/13 11:01:17;;;;;;;14.65;10.13;;;;;;;29.34;45.38;100259.50;6043930;23;20037;-82
2021/08/13 11:03:53;;;;;;;11.68;9.02;;;;;;;29.38;44.69;100274.31;6044324;23;20027;-87
2021/08/13 11:06:35;;;;;;;12.15;8.90;;;;;;;29.44;44.95;100270.81;6069481;23;20105;-88
2021/08/13 11:09:04;;;;;;;13.93;9.27;;;;;;;29.55;45.04;100260.44;6044016;23;20069;-88
2021/08/13 11:11:50;;;;;;;10.70;8.93;;;;;;;29.67;43.76;100260.72;6047499;23;20033;-88
2021/08/13 11:14:29;;;;;;;11.15;8.48;;;;;;;29.77;43.79;100262.03;6043748;23;20062;-82
2021/08/13 11:16:56;;;;;;;13.25;8.63;;;;;;;29.92;43.52;100263.75;6043974;23;20023;-82
2021/08/13 11:19:24;;;;;;;8.48;7.57;;;;;;;30.06;43.80;100269.22;6044047;23;20029;-82
2021/08/13 11:21:54;;;;;;;8.13;6.72;;;;;;;30.22;42.37;100278.88;6044249;23;20102;-82
2021/08/13 11:24:26;;;;;;;7.60;5.82;;;;;;;30.42;43.42;100284.34;6043729;23;20058;-82
2021/08/13 11:26:53;;;;;;;6.88;6.20;;;;;;;30.65;43.30;100278.53;6041432;23;20043;-84
2021/08/13 11:29:29;;;;;;;8.30;5.97;;;;;;;30.89;41.49;100289.84;6044096;23;20069;-84
2021/08/13 11:32:00;;;;;;;7.63;5.82;;;;;;;31.16;41.56;100278.09;6044113;23;20109;-84
2021/08/13 11:35:09;;;;;;;6.03;5.43;;;;;;;31.35;41.51;100270.16;6043700;23;20097;-85
2021/08/13 11:37:41;;;;;;;5.57;4.68;;;;;;;31.55;40.64;100270.91;6043755;23;20030;-84
2021/08/13 11:40:15;;;;;;;8.20;5.70;;;;;;;31.62;39.53;100261.91;6044087;23;20472;-88
2021/08/13 11:42:53;;;;;;;10.15;5.10;;;;;;;31.68;39.51;100270.06;6044062;23;20094;-88